sensor_id;sensor_type;location;lat;lon;timestamp;P1;durP1;ratioP1;P2;durP2;ratioP2
727;SDS011;347;48.780;9.158;2023-03-03T00:00:45;37.00;;;33.70;;
727;SDS011;347;48.780;9.158;2023-03-03T00:03:11;35.10;;;31.90;;
727;SDS011;347;48.780;9.158;2023-03-03T00:05:40;36.50;;;33.30;;
727;SDS011;347;48.780;9.158;2023-03-03T00:08:06;38.77;;;35.17;;
727;SDS011;347;48.780;9.158;2023-03-03T00:10:32;38.03;;;34.63;;
727;SDS011;347;48.780;9.158;2023-03-03T00:12:58;36.77;;;33.60;;
727;SDS011;347;48.780;9.158;2023-03-03T00:15:24;37.93;;;34.53;;
727;SDS011;347;48.780;9.158;2023-03-03T00:17:51;37.03;;;33.80;;
727;SDS011;347;48.780;9.158;2023-03-03T00:20:36;38.87;;;35.37;;
727;SDS011;347;48.780;9.158;2023-03-03T00:23:13;37.13;;;33.63;;
727;SDS011;347;48.780;9.158;2023-03-03T00:25:44;37.87;;;34.67;;
727;SDS011;347;48.780;9.158;2023-03-03T00:30:51;39.40;;;35.70;;
727;SDS011;347;48.780;9.158;2023-03-03T00:33:20;39.60;;;36.00;;
727;SDS011;347;48.780;9.158;2023-03-03T00:35:52;37.93;;;34.60;;
727;SDS011;347;48.780;9.158;2023-03-03T00:38:21;37.20;;;34.03;;
727;SDS011;347;48.780;9.158;2023-03-03T00:40:47;37.43;;;34.03;;
727;SDS011;347;48.780;9.158;2023-03-03T00:43:18;39.97;;;36.57;;
727;SDS011;347;48.780;9.158;2023-03-03T00:45:54;39.00;;;35.63;;
727;SDS011;347;48.780;9.158;2023-03-03T00:50:48;39.23;;;35.80;;
727;SDS011;347;48.780;9.158;2023-03-03T00:53:19;39.27;;;35.93;;
727;SDS011;347;48.780;9.158;2023-03-03T00:55:46;41.10;;;37.50;;
727;SDS011;347;48.780;9.158;2023-03-03T00:58:13;38.83;;;35.50;;
727;SDS011;347;48.780;9.158;2023-03-03T01:00:39;41.20;;;37.50;;
727;SDS011;347;48.780;9.158;2023-03-03T01:03:07;37.57;;;34.30;;
727;SDS011;347;48.780;9.158;2023-03-03T01:05:36;40.20;;;36.50;;
727;SDS011;347;48.780;9.158;2023-03-03T01:08:02;39.53;;;36.03;;
727;SDS011;347;48.780;9.158;2023-03-03T01:10:29;39.30;;;35.90;;
727;SDS011;347;48.780;9.158;2023-03-03T01:12:58;38.17;;;34.77;;
727;SDS011;347;48.780;9.158;2023-03-03T01:15:23;38.37;;;34.90;;
727;SDS011;347;48.780;9.158;2023-03-03T01:17:49;39.10;;;35.53;;
727;SDS011;347;48.780;9.158;2023-03-03T01:20:15;40.07;;;36.57;;
727;SDS011;347;48.780;9.158;2023-03-03T01:22:41;40.60;;;37.00;;
727;SDS011;347;48.780;9.158;2023-03-03T01:25:07;38.57;;;34.97;;
727;SDS011;347;48.780;9.158;2023-03-03T01:27:33;36.83;;;33.63;;
727;SDS011;347;48.780;9.158;2023-03-03T01:29:59;40.03;;;36.53;;
727;SDS011;347;48.780;9.158;2023-03-03T01:32:26;39.10;;;35.80;;
727;SDS011;347;48.780;9.158;2023-03-03T01:34:52;38.13;;;34.80;;
727;SDS011;347;48.780;9.158;2023-03-03T01:37:18;37.97;;;34.40;;
727;SDS011;347;48.780;9.158;2023-03-03T01:39:51;37.97;;;34.60;;
727;SDS011;347;48.780;9.158;2023-03-03T01:42:18;38.17;;;34.83;;
727;SDS011;347;48.780;9.158;2023-03-03T01:44:44;40.40;;;37.00;;
727;SDS011;347;48.780;9.158;2023-03-03T01:47:20;38.20;;;35.10;;
727;SDS011;347;48.780;9.158;2023-03-03T01:49:59;38.23;;;35.00;;
727;SDS011;347;48.780;9.158;2023-03-03T01:55:16;38.83;;;35.23;;
727;SDS011;347;48.780;9.158;2023-03-03T01:57:47;39.57;;;36.03;;
727;SDS011;347;48.780;9.158;2023-03-03T02:00:20;39.40;;;35.93;;
727;SDS011;347;48.780;9.158;2023-03-03T02:02:45;37.50;;;33.97;;
727;SDS011;347;48.780;9.158;2023-03-03T02:05:12;39.57;;;36.13;;
727;SDS011;347;48.780;9.158;2023-03-03T02:07:39;40.50;;;37.03;;
727;SDS011;347;48.780;9.158;2023-03-03T02:10:06;39.50;;;36.00;;
727;SDS011;347;48.780;9.158;2023-03-03T02:12:42;40.63;;;37.23;;
727;SDS011;347;48.780;9.158;2023-03-03T02:17:42;40.47;;;36.60;;
727;SDS011;347;48.780;9.158;2023-03-03T02:20:11;38.43;;;34.73;;
727;SDS011;347;48.780;9.158;2023-03-03T02:22:56;40.00;;;36.57;;
727;SDS011;347;48.780;9.158;2023-03-03T02:25:46;38.60;;;35.30;;
727;SDS011;347;48.780;9.158;2023-03-03T02:28:22;39.27;;;35.83;;
727;SDS011;347;48.780;9.158;2023-03-03T02:30:53;39.67;;;35.97;;
727;SDS011;347;48.780;9.158;2023-03-03T02:33:20;41.37;;;37.37;;
727;SDS011;347;48.780;9.158;2023-03-03T02:35:46;41.97;;;38.07;;
727;SDS011;347;48.780;9.158;2023-03-03T02:43:57;41.00;;;37.40;;
727;SDS011;347;48.780;9.158;2023-03-03T02:46:20;40.90;;;37.17;;
727;SDS011;347;48.780;9.158;2023-03-03T02:48:46;40.27;;;36.67;;
727;SDS011;347;48.780;9.158;2023-03-03T02:51:11;41.73;;;37.93;;
727;SDS011;347;48.780;9.158;2023-03-03T02:53:37;41.53;;;37.77;;
727;SDS011;347;48.780;9.158;2023-03-03T02:56:03;41.20;;;37.37;;
727;SDS011;347;48.780;9.158;2023-03-03T02:58:29;40.27;;;36.70;;
727;SDS011;347;48.780;9.158;2023-03-03T03:00:55;41.73;;;38.10;;
727;SDS011;347;48.780;9.158;2023-03-03T03:03:20;43.80;;;39.63;;
727;SDS011;347;48.780;9.158;2023-03-03T03:05:46;43.27;;;39.40;;
727;SDS011;347;48.780;9.158;2023-03-03T03:08:12;42.83;;;39.10;;
727;SDS011;347;48.780;9.158;2023-03-03T03:10:38;41.10;;;37.30;;
727;SDS011;347;48.780;9.158;2023-03-03T03:13:03;42.73;;;38.67;;
727;SDS011;347;48.780;9.158;2023-03-03T03:15:29;41.50;;;37.63;;
727;SDS011;347;48.780;9.158;2023-03-03T03:17:55;40.93;;;37.30;;
727;SDS011;347;48.780;9.158;2023-03-03T03:20:20;41.17;;;37.10;;
727;SDS011;347;48.780;9.158;2023-03-03T03:22:46;42.23;;;38.20;;
727;SDS011;347;48.780;9.158;2023-03-03T03:25:12;42.40;;;38.47;;
727;SDS011;347;48.780;9.158;2023-03-03T03:27:37;40.27;;;36.50;;
727;SDS011;347;48.780;9.158;2023-03-03T03:30:03;42.07;;;38.20;;
727;SDS011;347;48.780;9.158;2023-03-03T03:32:29;44.33;;;40.27;;
727;SDS011;347;48.780;9.158;2023-03-03T03:34:55;42.10;;;37.90;;
727;SDS011;347;48.780;9.158;2023-03-03T03:37:20;44.13;;;40.33;;
727;SDS011;347;48.780;9.158;2023-03-03T03:39:46;40.47;;;36.97;;
727;SDS011;347;48.780;9.158;2023-03-03T03:42:12;43.73;;;39.60;;
727;SDS011;347;48.780;9.158;2023-03-03T03:44:37;43.13;;;38.87;;
727;SDS011;347;48.780;9.158;2023-03-03T03:47:03;41.27;;;37.60;;
727;SDS011;347;48.780;9.158;2023-03-03T03:49:29;43.37;;;39.20;;
727;SDS011;347;48.780;9.158;2023-03-03T03:51:54;41.00;;;37.20;;
727;SDS011;347;48.780;9.158;2023-03-03T03:54:20;39.87;;;36.37;;
727;SDS011;347;48.780;9.158;2023-03-03T03:56:46;43.27;;;39.53;;
727;SDS011;347;48.780;9.158;2023-03-03T03:59:11;43.57;;;39.27;;
727;SDS011;347;48.780;9.158;2023-03-03T04:01:37;44.83;;;40.50;;
727;SDS011;347;48.780;9.158;2023-03-03T04:04:02;42.40;;;38.60;;
727;SDS011;347;48.780;9.158;2023-03-03T04:06:29;44.37;;;40.27;;
727;SDS011;347;48.780;9.158;2023-03-03T04:08:55;42.80;;;38.90;;
727;SDS011;347;48.780;9.158;2023-03-03T04:11:21;43.93;;;40.10;;
727;SDS011;347;48.780;9.158;2023-03-03T04:13:47;43.17;;;39.17;;
727;SDS011;347;48.780;9.158;2023-03-03T04:16:12;45.03;;;40.90;;
727;SDS011;347;48.780;9.158;2023-03-03T04:18:38;44.17;;;40.00;;
727;SDS011;347;48.780;9.158;2023-03-03T04:21:05;46.23;;;41.53;;
727;SDS011;347;48.780;9.158;2023-03-03T04:23:31;44.07;;;40.17;;
727;SDS011;347;48.780;9.158;2023-03-03T04:25:56;44.20;;;39.90;;
727;SDS011;347;48.780;9.158;2023-03-03T04:28:22;44.23;;;40.30;;
727;SDS011;347;48.780;9.158;2023-03-03T04:30:49;45.43;;;40.90;;
727;SDS011;347;48.780;9.158;2023-03-03T04:33:14;44.07;;;39.97;;
727;SDS011;347;48.780;9.158;2023-03-03T04:35:40;44.00;;;39.87;;
727;SDS011;347;48.780;9.158;2023-03-03T04:38:06;42.80;;;38.80;;
727;SDS011;347;48.780;9.158;2023-03-03T04:40:31;44.07;;;39.97;;
727;SDS011;347;48.780;9.158;2023-03-03T04:42:57;42.67;;;38.73;;
727;SDS011;347;48.780;9.158;2023-03-03T04:45:22;42.60;;;38.50;;
727;SDS011;347;48.780;9.158;2023-03-03T04:47:48;45.90;;;41.37;;
727;SDS011;347;48.780;9.158;2023-03-03T04:50:14;43.50;;;39.33;;
727;SDS011;347;48.780;9.158;2023-03-03T04:52:40;40.03;;;36.37;;
727;SDS011;347;48.780;9.158;2023-03-03T04:55:06;42.00;;;38.27;;
727;SDS011;347;48.780;9.158;2023-03-03T04:57:32;42.40;;;38.47;;
727;SDS011;347;48.780;9.158;2023-03-03T04:59:58;43.37;;;39.33;;
727;SDS011;347;48.780;9.158;2023-03-03T05:02:23;41.83;;;37.90;;
727;SDS011;347;48.780;9.158;2023-03-03T05:04:49;42.40;;;38.07;;
727;SDS011;347;48.780;9.158;2023-03-03T05:07:14;40.77;;;36.73;;
727;SDS011;347;48.780;9.158;2023-03-03T05:09:41;43.00;;;38.87;;
727;SDS011;347;48.780;9.158;2023-03-03T05:12:07;41.17;;;37.20;;
727;SDS011;347;48.780;9.158;2023-03-03T05:14:32;44.37;;;40.27;;
727;SDS011;347;48.780;9.158;2023-03-03T05:16:58;43.63;;;39.30;;
727;SDS011;347;48.780;9.158;2023-03-03T05:19:24;42.17;;;38.13;;
727;SDS011;347;48.780;9.158;2023-03-03T05:21:50;43.20;;;39.30;;
727;SDS011;347;48.780;9.158;2023-03-03T05:24:15;43.07;;;39.07;;
727;SDS011;347;48.780;9.158;2023-03-03T05:26:41;42.00;;;38.20;;
727;SDS011;347;48.780;9.158;2023-03-03T05:29:07;43.63;;;39.50;;
727;SDS011;347;48.780;9.158;2023-03-03T05:31:33;43.27;;;39.47;;
727;SDS011;347;48.780;9.158;2023-03-03T05:33:59;42.87;;;38.70;;
727;SDS011;347;48.780;9.158;2023-03-03T05:36:25;43.80;;;39.67;;
727;SDS011;347;48.780;9.158;2023-03-03T05:38:51;43.67;;;39.60;;
727;SDS011;347;48.780;9.158;2023-03-03T05:41:16;43.77;;;39.63;;
727;SDS011;347;48.780;9.158;2023-03-03T05:43:42;43.13;;;39.13;;
727;SDS011;347;48.780;9.158;2023-03-03T05:46:08;43.33;;;39.50;;
727;SDS011;347;48.780;9.158;2023-03-03T05:48:34;42.40;;;38.20;;
727;SDS011;347;48.780;9.158;2023-03-03T05:51:00;40.80;;;37.07;;
727;SDS011;347;48.780;9.158;2023-03-03T05:53:26;44.37;;;39.77;;
727;SDS011;347;48.780;9.158;2023-03-03T05:55:52;43.63;;;39.50;;
727;SDS011;347;48.780;9.158;2023-03-03T05:58:18;42.87;;;38.97;;
727;SDS011;347;48.780;9.158;2023-03-03T06:00:44;42.80;;;38.70;;
727;SDS011;347;48.780;9.158;2023-03-03T06:03:09;44.23;;;39.90;;
727;SDS011;347;48.780;9.158;2023-03-03T06:05:35;43.70;;;39.70;;
727;SDS011;347;48.780;9.158;2023-03-03T06:08:01;40.10;;;36.23;;
727;SDS011;347;48.780;9.158;2023-03-03T06:10:26;38.00;;;34.47;;
727;SDS011;347;48.780;9.158;2023-03-03T06:12:52;41.40;;;37.50;;
727;SDS011;347;48.780;9.158;2023-03-03T06:15:19;38.40;;;34.83;;
727;SDS011;347;48.780;9.158;2023-03-03T06:17:45;39.13;;;35.60;;
727;SDS011;347;48.780;9.158;2023-03-03T06:20:11;40.27;;;36.67;;
727;SDS011;347;48.780;9.158;2023-03-03T06:22:36;38.40;;;34.70;;
727;SDS011;347;48.780;9.158;2023-03-03T06:25:02;39.43;;;35.73;;
727;SDS011;347;48.780;9.158;2023-03-03T06:27:28;39.07;;;35.40;;
727;SDS011;347;48.780;9.158;2023-03-03T06:29:54;37.43;;;34.10;;
727;SDS011;347;48.780;9.158;2023-03-03T06:32:20;38.73;;;35.10;;
727;SDS011;347;48.780;9.158;2023-03-03T06:34:45;39.43;;;35.73;;
727;SDS011;347;48.780;9.158;2023-03-03T06:37:11;37.63;;;34.33;;
727;SDS011;347;48.780;9.158;2023-03-03T06:39:37;38.73;;;35.03;;
727;SDS011;347;48.780;9.158;2023-03-03T06:42:02;38.00;;;34.80;;
727;SDS011;347;48.780;9.158;2023-03-03T06:44:28;38.33;;;34.87;;
727;SDS011;347;48.780;9.158;2023-03-03T06:46:54;40.27;;;36.40;;
727;SDS011;347;48.780;9.158;2023-03-03T06:49:21;38.97;;;35.50;;
727;SDS011;347;48.780;9.158;2023-03-03T06:51:47;40.57;;;36.30;;
727;SDS011;347;48.780;9.158;2023-03-03T06:54:17;38.50;;;34.77;;
727;SDS011;347;48.780;9.158;2023-03-03T06:56:44;37.77;;;34.33;;
727;SDS011;347;48.780;9.158;2023-03-03T06:59:12;39.97;;;36.27;;
727;SDS011;347;48.780;9.158;2023-03-03T07:01:43;39.37;;;35.47;;
727;SDS011;347;48.780;9.158;2023-03-03T07:04:15;38.80;;;35.20;;
727;SDS011;347;48.780;9.158;2023-03-03T07:06:44;37.93;;;34.50;;
727;SDS011;347;48.780;9.158;2023-03-03T07:09:28;37.47;;;33.67;;
727;SDS011;347;48.780;9.158;2023-03-03T07:12:01;36.17;;;32.80;;
727;SDS011;347;48.780;9.158;2023-03-03T07:14:34;37.93;;;34.20;;
727;SDS011;347;48.780;9.158;2023-03-03T07:17:09;35.53;;;32.43;;
727;SDS011;347;48.780;9.158;2023-03-03T07:19:44;35.43;;;32.10;;
727;SDS011;347;48.780;9.158;2023-03-03T07:22:13;34.90;;;31.97;;
727;SDS011;347;48.780;9.158;2023-03-03T07:24:39;35.33;;;32.20;;
727;SDS011;347;48.780;9.158;2023-03-03T07:27:11;36.03;;;32.73;;
727;SDS011;347;48.780;9.158;2023-03-03T07:29:41;34.40;;;31.50;;
727;SDS011;347;48.780;9.158;2023-03-03T07:32:18;35.50;;;31.90;;
727;SDS011;347;48.780;9.158;2023-03-03T07:35:00;35.10;;;31.87;;
727;SDS011;347;48.780;9.158;2023-03-03T07:37:30;36.30;;;33.00;;
727;SDS011;347;48.780;9.158;2023-03-03T07:40:10;36.43;;;33.20;;
727;SDS011;347;48.780;9.158;2023-03-03T07:46:02;36.23;;;32.83;;
727;SDS011;347;48.780;9.158;2023-03-03T07:48:40;36.27;;;32.97;;
727;SDS011;347;48.780;9.158;2023-03-03T07:53:49;35.70;;;32.50;;
727;SDS011;347;48.780;9.158;2023-03-03T07:56:29;36.83;;;33.13;;
727;SDS011;347;48.780;9.158;2023-03-03T07:58:59;36.27;;;32.80;;
727;SDS011;347;48.780;9.158;2023-03-03T08:04:11;36.83;;;33.10;;
727;SDS011;347;48.780;9.158;2023-03-03T08:06:49;35.50;;;32.20;;
727;SDS011;347;48.780;9.158;2023-03-03T08:14:27;35.60;;;32.33;;
727;SDS011;347;48.780;9.158;2023-03-03T08:16:55;34.53;;;31.43;;
727;SDS011;347;48.780;9.158;2023-03-03T08:19:22;35.40;;;32.00;;
727;SDS011;347;48.780;9.158;2023-03-03T08:21:48;35.60;;;32.27;;
727;SDS011;347;48.780;9.158;2023-03-03T08:24:14;35.83;;;32.20;;
727;SDS011;347;48.780;9.158;2023-03-03T08:26:39;34.33;;;31.03;;
727;SDS011;347;48.780;9.158;2023-03-03T08:29:05;35.40;;;32.10;;
727;SDS011;347;48.780;9.158;2023-03-03T08:31:31;32.67;;;29.47;;
727;SDS011;347;48.780;9.158;2023-03-03T08:33:56;33.23;;;30.20;;
727;SDS011;347;48.780;9.158;2023-03-03T08:36:23;28.47;;;26.00;;
727;SDS011;347;48.780;9.158;2023-03-03T08:38:48;28.53;;;26.03;;
727;SDS011;347;48.780;9.158;2023-03-03T08:41:14;30.43;;;27.73;;
727;SDS011;347;48.780;9.158;2023-03-03T08:43:39;31.00;;;28.27;;
727;SDS011;347;48.780;9.158;2023-03-03T08:46:05;31.00;;;28.13;;
727;SDS011;347;48.780;9.158;2023-03-03T08:48:31;30.03;;;27.43;;
727;SDS011;347;48.780;9.158;2023-03-03T08:50:57;30.70;;;28.10;;
727;SDS011;347;48.780;9.158;2023-03-03T08:53:23;30.43;;;27.90;;
727;SDS011;347;48.780;9.158;2023-03-03T08:55:49;30.63;;;27.80;;
727;SDS011;347;48.780;9.158;2023-03-03T08:58:16;29.43;;;26.80;;
727;SDS011;347;48.780;9.158;2023-03-03T09:00:43;29.83;;;27.07;;
727;SDS011;347;48.780;9.158;2023-03-03T09:03:08;30.43;;;27.73;;
727;SDS011;347;48.780;9.158;2023-03-03T09:05:35;30.97;;;28.50;;
727;SDS011;347;48.780;9.158;2023-03-03T09:08:02;31.20;;;28.47;;
727;SDS011;347;48.780;9.158;2023-03-03T09:10:28;29.07;;;26.40;;
727;SDS011;347;48.780;9.158;2023-03-03T09:12:59;31.77;;;28.77;;
727;SDS011;347;48.780;9.158;2023-03-03T09:15:35;29.87;;;27.17;;
727;SDS011;347;48.780;9.158;2023-03-03T09:18:18;30.63;;;27.80;;
727;SDS011;347;48.780;9.158;2023-03-03T09:20:49;30.67;;;27.70;;
727;SDS011;347;48.780;9.158;2023-03-03T09:26:22;29.97;;;27.17;;
727;SDS011;347;48.780;9.158;2023-03-03T09:29:26;32.30;;;29.60;;
727;SDS011;347;48.780;9.158;2023-03-03T09:34:26;32.40;;;29.57;;
727;SDS011;347;48.780;9.158;2023-03-03T09:36:53;30.53;;;27.93;;
727;SDS011;347;48.780;9.158;2023-03-03T09:39:23;31.63;;;28.73;;
727;SDS011;347;48.780;9.158;2023-03-03T09:47:45;33.57;;;30.77;;
727;SDS011;347;48.780;9.158;2023-03-03T09:50:24;33.40;;;30.30;;
727;SDS011;347;48.780;9.158;2023-03-03T10:06:37;33.67;;;31.03;;
727;SDS011;347;48.780;9.158;2023-03-03T10:11:59;35.77;;;32.77;;
727;SDS011;347;48.780;9.158;2023-03-03T10:20:05;33.80;;;30.80;;
727;SDS011;347;48.780;9.158;2023-03-03T10:25:21;32.33;;;29.47;;
727;SDS011;347;48.780;9.158;2023-03-03T10:32:57;32.40;;;29.73;;
727;SDS011;347;48.780;9.158;2023-03-03T10:35:31;35.90;;;32.70;;
727;SDS011;347;48.780;9.158;2023-03-03T10:49:05;33.07;;;30.37;;
727;SDS011;347;48.780;9.158;2023-03-03T10:51:39;32.67;;;29.77;;
727;SDS011;347;48.780;9.158;2023-03-03T11:05:39;34.30;;;31.40;;
727;SDS011;347;48.780;9.158;2023-03-03T11:08:25;37.07;;;34.07;;
727;SDS011;347;48.780;9.158;2023-03-03T11:11:15;36.77;;;33.57;;
727;SDS011;347;48.780;9.158;2023-03-03T11:24:53;33.33;;;30.63;;
727;SDS011;347;48.780;9.158;2023-03-03T11:30:07;34.77;;;31.50;;
727;SDS011;347;48.780;9.158;2023-03-03T11:38:14;35.87;;;32.90;;
727;SDS011;347;48.780;9.158;2023-03-03T11:41:09;38.60;;;35.17;;
727;SDS011;347;48.780;9.158;2023-03-03T11:44:02;36.67;;;33.43;;
727;SDS011;347;48.780;9.158;2023-03-03T11:46:38;34.60;;;31.70;;
727;SDS011;347;48.780;9.158;2023-03-03T11:49:12;34.77;;;31.87;;
727;SDS011;347;48.780;9.158;2023-03-03T11:54:17;36.43;;;33.33;;
727;SDS011;347;48.780;9.158;2023-03-03T11:56:47;35.53;;;32.47;;
727;SDS011;347;48.780;9.158;2023-03-03T12:04:49;34.00;;;31.10;;
727;SDS011;347;48.780;9.158;2023-03-03T12:10:12;36.90;;;33.40;;
727;SDS011;347;48.780;9.158;2023-03-03T12:13:00;35.33;;;32.40;;
727;SDS011;347;48.780;9.158;2023-03-03T12:18:25;33.13;;;30.17;;
727;SDS011;347;48.780;9.158;2023-03-03T12:21:02;33.80;;;30.80;;
727;SDS011;347;48.780;9.158;2023-03-03T12:23:54;33.40;;;30.60;;
727;SDS011;347;48.780;9.158;2023-03-03T12:37:49;31.63;;;29.03;;
727;SDS011;347;48.780;9.158;2023-03-03T12:48:52;32.90;;;30.00;;
727;SDS011;347;48.780;9.158;2023-03-03T12:51:20;33.23;;;30.60;;
727;SDS011;347;48.780;9.158;2023-03-03T12:57:12;30.70;;;28.10;;
727;SDS011;347;48.780;9.158;2023-03-03T13:05:21;31.90;;;29.23;;
727;SDS011;347;48.780;9.158;2023-03-03T13:10:23;32.20;;;29.50;;
727;SDS011;347;48.780;9.158;2023-03-03T13:13:00;35.07;;;32.17;;
727;SDS011;347;48.780;9.158;2023-03-03T13:15:28;32.37;;;29.47;;
727;SDS011;347;48.780;9.158;2023-03-03T13:26:35;32.33;;;29.63;;
727;SDS011;347;48.780;9.158;2023-03-03T13:29:25;33.90;;;30.80;;
727;SDS011;347;48.780;9.158;2023-03-03T13:31:54;32.67;;;29.83;;
727;SDS011;347;48.780;9.158;2023-03-03T13:39:56;32.57;;;29.70;;
727;SDS011;347;48.780;9.158;2023-03-03T13:51:02;30.90;;;28.10;;
727;SDS011;347;48.780;9.158;2023-03-03T13:59:23;33.60;;;30.40;;
727;SDS011;347;48.780;9.158;2023-03-03T14:10:22;34.43;;;31.10;;
727;SDS011;347;48.780;9.158;2023-03-03T14:13:17;32.37;;;29.47;;
727;SDS011;347;48.780;9.158;2023-03-03T14:16:04;32.17;;;29.37;;
727;SDS011;347;48.780;9.158;2023-03-03T14:21:26;33.47;;;30.57;;
727;SDS011;347;48.780;9.158;2023-03-03T14:24:14;34.10;;;31.07;;
727;SDS011;347;48.780;9.158;2023-03-03T14:26:49;31.50;;;28.70;;
727;SDS011;347;48.780;9.158;2023-03-03T14:31:51;34.07;;;31.20;;
727;SDS011;347;48.780;9.158;2023-03-03T14:34:29;33.73;;;30.73;;
727;SDS011;347;48.780;9.158;2023-03-03T14:40:32;33.57;;;30.57;;
727;SDS011;347;48.780;9.158;2023-03-03T14:42:48;32.93;;;30.20;;
727;SDS011;347;48.780;9.158;2023-03-03T14:47:54;34.73;;;31.50;;
727;SDS011;347;48.780;9.158;2023-03-03T14:50:33;33.93;;;30.83;;
727;SDS011;347;48.780;9.158;2023-03-03T14:53:10;32.10;;;29.37;;
727;SDS011;347;48.780;9.158;2023-03-03T14:55:43;34.13;;;31.07;;
727;SDS011;347;48.780;9.158;2023-03-03T15:03:45;33.30;;;30.33;;
727;SDS011;347;48.780;9.158;2023-03-03T15:22:51;34.17;;;31.27;;
727;SDS011;347;48.780;9.158;2023-03-03T15:25:32;33.80;;;30.80;;
727;SDS011;347;48.780;9.158;2023-03-03T15:28:16;34.80;;;31.60;;
727;SDS011;347;48.780;9.158;2023-03-03T15:35:55;36.47;;;33.40;;
727;SDS011;347;48.780;9.158;2023-03-03T15:41:32;34.67;;;31.50;;
727;SDS011;347;48.780;9.158;2023-03-03T16:02:57;34.90;;;31.90;;
727;SDS011;347;48.780;9.158;2023-03-03T16:05:33;34.43;;;31.47;;
727;SDS011;347;48.780;9.158;2023-03-03T16:08:16;34.83;;;31.63;;
727;SDS011;347;48.780;9.158;2023-03-03T16:13:58;34.70;;;31.73;;
727;SDS011;347;48.780;9.158;2023-03-03T16:27:29;35.83;;;32.50;;
727;SDS011;347;48.780;9.158;2023-03-03T16:38:29;36.80;;;33.57;;
727;SDS011;347;48.780;9.158;2023-03-03T16:40:59;34.13;;;31.13;;
727;SDS011;347;48.780;9.158;2023-03-03T16:46:32;32.67;;;29.80;;
727;SDS011;347;48.780;9.158;2023-03-03T16:54:25;33.63;;;30.73;;
727;SDS011;347;48.780;9.158;2023-03-03T17:16:21;34.87;;;31.77;;
727;SDS011;347;48.780;9.158;2023-03-03T17:34:04;33.97;;;30.87;;
727;SDS011;347;48.780;9.158;2023-03-03T17:36:18;35.13;;;31.93;;
727;SDS011;347;48.780;9.158;2023-03-03T17:47:41;34.03;;;30.90;;
727;SDS011;347;48.780;9.158;2023-03-03T17:53:25;32.20;;;28.80;;
727;SDS011;347;48.780;9.158;2023-03-03T17:59:02;33.53;;;30.17;;
727;SDS011;347;48.780;9.158;2023-03-03T18:23:46;32.40;;;29.47;;
727;SDS011;347;48.780;9.158;2023-03-03T18:29:27;35.40;;;32.30;;
727;SDS011;347;48.780;9.158;2023-03-03T18:40:40;37.27;;;33.90;;
727;SDS011;347;48.780;9.158;2023-03-03T18:42:50;37.70;;;34.10;;
727;SDS011;347;48.780;9.158;2023-03-03T18:50:35;37.93;;;34.43;;
727;SDS011;347;48.780;9.158;2023-03-03T18:55:45;36.67;;;32.97;;
727;SDS011;347;48.780;9.158;2023-03-03T19:00:51;36.27;;;32.87;;
727;SDS011;347;48.780;9.158;2023-03-03T19:03:32;38.87;;;35.23;;
727;SDS011;347;48.780;9.158;2023-03-03T19:05:58;37.93;;;34.40;;
727;SDS011;347;48.780;9.158;2023-03-03T19:16:51;37.13;;;33.67;;
727;SDS011;347;48.780;9.158;2023-03-03T19:19:18;37.57;;;33.90;;
727;SDS011;347;48.780;9.158;2023-03-03T19:21:47;46.20;;;41.53;;
727;SDS011;347;48.780;9.158;2023-03-03T19:24:29;37.43;;;34.03;;
727;SDS011;347;48.780;9.158;2023-03-03T19:43:41;38.47;;;34.43;;
727;SDS011;347;48.780;9.158;2023-03-03T19:49:21;39.27;;;35.53;;
727;SDS011;347;48.780;9.158;2023-03-03T19:52:02;39.20;;;35.60;;
727;SDS011;347;48.780;9.158;2023-03-03T20:01:03;35.90;;;32.60;;
727;SDS011;347;48.780;9.158;2023-03-03T20:12:09;36.67;;;33.30;;
727;SDS011;347;48.780;9.158;2023-03-03T20:14:52;35.97;;;32.57;;
727;SDS011;347;48.780;9.158;2023-03-03T20:26:00;36.30;;;32.63;;
727;SDS011;347;48.780;9.158;2023-03-03T20:35:24;37.33;;;33.70;;
727;SDS011;347;48.780;9.158;2023-03-03T20:37:28;34.97;;;31.77;;
727;SDS011;347;48.780;9.158;2023-03-03T20:51:16;34.53;;;31.30;;
727;SDS011;347;48.780;9.158;2023-03-03T20:56:50;36.10;;;32.77;;
727;SDS011;347;48.780;9.158;2023-03-03T20:59:28;33.23;;;30.27;;
727;SDS011;347;48.780;9.158;2023-03-03T21:02:17;32.70;;;29.70;;
727;SDS011;347;48.780;9.158;2023-03-03T21:10:28;33.77;;;30.67;;
727;SDS011;347;48.780;9.158;2023-03-03T21:12:58;34.47;;;30.87;;
727;SDS011;347;48.780;9.158;2023-03-03T21:16:05;34.87;;;31.40;;
727;SDS011;347;48.780;9.158;2023-03-03T21:19:06;34.70;;;31.60;;
727;SDS011;347;48.780;9.158;2023-03-03T21:21:36;33.10;;;30.00;;
727;SDS011;347;48.780;9.158;2023-03-03T21:24:10;46.63;;;37.47;;
727;SDS011;347;48.780;9.158;2023-03-03T21:29:25;38.47;;;34.37;;
727;SDS011;347;48.780;9.158;2023-03-03T21:31:54;39.20;;;34.87;;
727;SDS011;347;48.780;9.158;2023-03-03T21:36:48;41.73;;;37.37;;
727;SDS011;347;48.780;9.158;2023-03-03T21:40:10;40.97;;;34.80;;
727;SDS011;347;48.780;9.158;2023-03-03T21:42:12;42.17;;;37.70;;
727;SDS011;347;48.780;9.158;2023-03-03T21:44:40;38.87;;;34.77;;
727;SDS011;347;48.780;9.158;2023-03-03T21:47:15;39.33;;;35.13;;
727;SDS011;347;48.780;9.158;2023-03-03T21:49:50;38.73;;;34.93;;
727;SDS011;347;48.780;9.158;2023-03-03T21:52:17;37.00;;;33.30;;
727;SDS011;347;48.780;9.158;2023-03-03T21:54:45;34.63;;;31.17;;
727;SDS011;347;48.780;9.158;2023-03-03T21:57:12;39.70;;;35.67;;
727;SDS011;347;48.780;9.158;2023-03-03T21:59:38;38.60;;;34.70;;
727;SDS011;347;48.780;9.158;2023-03-03T22:02:05;41.80;;;37.03;;
727;SDS011;347;48.780;9.158;2023-03-03T22:04:31;39.93;;;35.70;;
727;SDS011;347;48.780;9.158;2023-03-03T22:06:57;40.33;;;35.70;;
727;SDS011;347;48.780;9.158;2023-03-03T22:09:23;44.07;;;39.57;;
727;SDS011;347;48.780;9.158;2023-03-03T22:11:48;41.73;;;37.43;;
727;SDS011;347;48.780;9.158;2023-03-03T22:14:14;40.77;;;36.47;;
727;SDS011;347;48.780;9.158;2023-03-03T22:16:40;38.03;;;34.37;;
727;SDS011;347;48.780;9.158;2023-03-03T22:19:06;36.57;;;33.27;;
727;SDS011;347;48.780;9.158;2023-03-03T22:21:36;34.83;;;31.40;;
727;SDS011;347;48.780;9.158;2023-03-03T22:24:03;34.53;;;31.37;;
727;SDS011;347;48.780;9.158;2023-03-03T22:26:29;35.07;;;31.87;;
727;SDS011;347;48.780;9.158;2023-03-03T22:28:55;34.27;;;31.03;;
727;SDS011;347;48.780;9.158;2023-03-03T22:31:20;35.50;;;32.20;;
727;SDS011;347;48.780;9.158;2023-03-03T22:33:46;33.53;;;30.03;;
727;SDS011;347;48.780;9.158;2023-03-03T22:36:13;34.70;;;31.60;;
727;SDS011;347;48.780;9.158;2023-03-03T22:38:39;32.40;;;29.23;;
727;SDS011;347;48.780;9.158;2023-03-03T22:41:04;33.40;;;30.00;;
727;SDS011;347;48.780;9.158;2023-03-03T22:43:30;33.13;;;30.20;;
727;SDS011;347;48.780;9.158;2023-03-03T22:45:56;33.60;;;30.50;;
727;SDS011;347;48.780;9.158;2023-03-03T22:48:23;33.20;;;30.27;;
727;SDS011;347;48.780;9.158;2023-03-03T22:50:50;32.43;;;29.37;;
727;SDS011;347;48.780;9.158;2023-03-03T22:53:16;33.17;;;30.07;;
727;SDS011;347;48.780;9.158;2023-03-03T22:55:42;32.17;;;29.10;;
727;SDS011;347;48.780;9.158;2023-03-03T22:58:08;32.90;;;30.00;;
727;SDS011;347;48.780;9.158;2023-03-03T23:00:34;32.80;;;29.70;;
727;SDS011;347;48.780;9.158;2023-03-03T23:03:03;34.27;;;31.10;;
727;SDS011;347;48.780;9.158;2023-03-03T23:05:32;31.37;;;28.40;;
727;SDS011;347;48.780;9.158;2023-03-03T23:08:00;32.43;;;29.30;;
727;SDS011;347;48.780;9.158;2023-03-03T23:10:27;31.27;;;28.47;;
727;SDS011;347;48.780;9.158;2023-03-03T23:12:53;33.37;;;30.00;;
727;SDS011;347;48.780;9.158;2023-03-03T23:15:19;31.70;;;28.80;;